sensor_id;sensor_type;location;lat;lon;timestamp;P1;durP1;ratioP1;P2;durP2;ratioP2
11431;SDS011;5772;50.940;6.782;2022-12-31T15:11:13;59.87;;;57.00;;
11431;SDS011;5772;50.940;6.782;2022-12-31T15:13:51;37.33;;;35.83;;
11431;SDS011;5772;50.940;6.782;2022-12-31T15:16:31;35.87;;;34.30;;
11431;SDS011;5772;50.940;6.782;2022-12-31T15:19:10;32.00;;;30.70;;
11431;SDS011;5772;50.940;6.782;2022-12-31T15:21:59;29.07;;;27.80;;
11431;SDS011;5772;50.940;6.782;2022-12-31T15:24:30;27.27;;;26.07;;
11431;SDS011;5772;50.940;6.782;2022-12-31T15:26:57;27.17;;;26.07;;
11431;SDS011;5772;50.940;6.782;2022-12-31T15:29:26;43.13;;;41.43;;
11431;SDS011;5772;50.940;6.782;2022-12-31T15:31:53;23.30;;;22.40;;
11431;SDS011;5772;50.940;6.782;2022-12-31T15:34:22;21.33;;;20.47;;
11431;SDS011;5772;50.940;6.782;2022-12-31T15:36:51;19.33;;;18.53;;
11431;SDS011;5772;50.940;6.782;2022-12-31T15:39:22;19.63;;;18.83;;
11431;SDS011;5772;50.940;6.782;2022-12-31T15:42:01;20.47;;;19.27;;
11431;SDS011;5772;50.940;6.782;2022-12-31T15:44:27;20.50;;;19.70;;
11431;SDS011;5772;50.940;6.782;2022-12-31T15:46:56;19.80;;;19.00;;
11431;SDS011;5772;50.940;6.782;2022-12-31T15:49:26;20.07;;;19.23;;
11431;SDS011;5772;50.940;6.782;2022-12-31T15:51:55;20.40;;;19.60;;
11431;SDS011;5772;50.940;6.782;2022-12-31T15:54:26;19.67;;;18.67;;
11431;SDS011;5772;50.940;6.782;2022-12-31T15:56:59;19.93;;;18.93;;
11431;SDS011;5772;50.940;6.782;2022-12-31T15:59:26;19.70;;;18.70;;
11431;SDS011;5772;50.940;6.782;2022-12-31T16:01:52;18.90;;;18.20;;
11431;SDS011;5772;50.940;6.782;2022-12-31T16:04:18;21.50;;;20.17;;
11431;SDS011;5772;50.940;6.782;2022-12-31T16:06:45;21.13;;;20.13;;
11431;SDS011;5772;50.940;6.782;2022-12-31T16:09:17;20.27;;;19.47;;
11431;SDS011;5772;50.940;6.782;2022-12-31T16:11:45;21.33;;;20.07;;
11431;SDS011;5772;50.940;6.782;2022-12-31T16:14:14;21.20;;;20.30;;
11431;SDS011;5772;50.940;6.782;2022-12-31T16:16:49;21.63;;;20.63;;
11431;SDS011;5772;50.940;6.782;2022-12-31T16:19:21;20.83;;;19.83;;
11431;SDS011;5772;50.940;6.782;2022-12-31T16:21:53;22.80;;;21.90;;
11431;SDS011;5772;50.940;6.782;2022-12-31T16:24:23;21.53;;;20.63;;
11431;SDS011;5772;50.940;6.782;2022-12-31T16:26:52;19.47;;;18.67;;
11431;SDS011;5772;50.940;6.782;2022-12-31T16:29:20;20.87;;;19.87;;
11431;SDS011;5772;50.940;6.782;2022-12-31T16:31:47;20.90;;;19.77;;
11431;SDS011;5772;50.940;6.782;2022-12-31T16:34:14;20.73;;;19.50;;
11431;SDS011;5772;50.940;6.782;2022-12-31T16:36:42;20.20;;;19.37;;
11431;SDS011;5772;50.940;6.782;2022-12-31T16:39:23;19.30;;;18.50;;
11431;SDS011;5772;50.940;6.782;2022-12-31T16:41:50;19.70;;;18.90;;
11431;SDS011;5772;50.940;6.782;2022-12-31T16:44:24;19.60;;;18.67;;
11431;SDS011;5772;50.940;6.782;2022-12-31T16:46:50;20.23;;;19.33;;
11431;SDS011;5772;50.940;6.782;2022-12-31T16:49:17;20.50;;;19.63;;
11431;SDS011;5772;50.940;6.782;2022-12-31T16:51:44;20.00;;;19.20;;
11431;SDS011;5772;50.940;6.782;2022-12-31T16:54:14;22.50;;;21.13;;
11431;SDS011;5772;50.940;6.782;2022-12-31T16:56:43;21.00;;;20.10;;
11431;SDS011;5772;50.940;6.782;2022-12-31T16:59:11;22.53;;;21.63;;
11431;SDS011;5772;50.940;6.782;2022-12-31T17:01:40;21.53;;;20.63;;
11431;SDS011;5772;50.940;6.782;2022-12-31T17:04:07;22.97;;;21.83;;
11431;SDS011;5772;50.940;6.782;2022-12-31T17:06:34;23.73;;;22.63;;
11431;SDS011;5772;50.940;6.782;2022-12-31T17:09:03;23.40;;;22.30;;
11431;SDS011;5772;50.940;6.782;2022-12-31T17:11:33;22.40;;;21.40;;
11431;SDS011;5772;50.940;6.782;2022-12-31T17:14:05;22.43;;;21.23;;
11431;SDS011;5772;50.940;6.782;2022-12-31T17:16:31;23.60;;;22.50;;
11431;SDS011;5772;50.940;6.782;2022-12-31T17:18:58;23.03;;;22.00;;
11431;SDS011;5772;50.940;6.782;2022-12-31T17:21:25;22.97;;;21.83;;
11431;SDS011;5772;50.940;6.782;2022-12-31T17:23:53;21.13;;;20.30;;
11431;SDS011;5772;50.940;6.782;2022-12-31T17:26:21;22.00;;;21.00;;
11431;SDS011;5772;50.940;6.782;2022-12-31T17:28:49;22.70;;;21.17;;
11431;SDS011;5772;50.940;6.782;2022-12-31T17:31:28;21.57;;;20.17;;
11431;SDS011;5772;50.940;6.782;2022-12-31T17:34:19;23.47;;;21.97;;
11431;SDS011;5772;50.940;6.782;2022-12-31T17:36:59;22.47;;;21.37;;
11431;SDS011;5772;50.940;6.782;2022-12-31T17:39:31;23.10;;;22.10;;
11431;SDS011;5772;50.940;6.782;2022-12-31T17:42:06;23.50;;;22.43;;
11431;SDS011;5772;50.940;6.782;2022-12-31T17:44:32;20.00;;;19.20;;
11431;SDS011;5772;50.940;6.782;2022-12-31T17:46:58;20.97;;;20.07;;
11431;SDS011;5772;50.940;6.782;2022-12-31T17:49:28;20.67;;;19.67;;
11431;SDS011;5772;50.940;6.782;2022-12-31T17:51:54;20.17;;;19.37;;
11431;SDS011;5772;50.940;6.782;2022-12-31T17:54:20;20.53;;;19.73;;
11431;SDS011;5772;50.940;6.782;2022-12-31T17:56:45;20.30;;;19.43;;
11431;SDS011;5772;50.940;6.782;2022-12-31T17:59:11;20.80;;;19.73;;
11431;SDS011;5772;50.940;6.782;2022-12-31T18:01:39;19.27;;;18.47;;
11431;SDS011;5772;50.940;6.782;2022-12-31T18:04:07;19.17;;;18.37;;
11431;SDS011;5772;50.940;6.782;2022-12-31T18:06:36;20.00;;;19.20;;
11431;SDS011;5772;50.940;6.782;2022-12-31T18:09:02;20.13;;;19.27;;
11431;SDS011;5772;50.940;6.782;2022-12-31T18:11:27;35.87;;;32.10;;
11431;SDS011;5772;50.940;6.782;2022-12-31T18:13:53;20.37;;;19.27;;
11431;SDS011;5772;50.940;6.782;2022-12-31T18:16:18;27.17;;;25.20;;
11431;SDS011;5772;50.940;6.782;2022-12-31T18:18:43;18.20;;;17.40;;
11431;SDS011;5772;50.940;6.782;2022-12-31T18:21:12;19.27;;;18.23;;
11431;SDS011;5772;50.940;6.782;2022-12-31T18:23:44;18.20;;;16.87;;
11431;SDS011;5772;50.940;6.782;2022-12-31T18:26:11;19.23;;;18.37;;
11431;SDS011;5772;50.940;6.782;2022-12-31T18:28:37;19.37;;;18.50;;
11431;SDS011;5772;50.940;6.782;2022-12-31T18:31:03;23.40;;;22.10;;
11431;SDS011;5772;50.940;6.782;2022-12-31T18:33:28;17.20;;;16.50;;
11431;SDS011;5772;50.940;6.782;2022-12-31T18:35:54;19.63;;;18.50;;
11431;SDS011;5772;50.940;6.782;2022-12-31T18:38:19;19.03;;;18.23;;
11431;SDS011;5772;50.940;6.782;2022-12-31T18:40:47;17.03;;;16.33;;
11431;SDS011;5772;50.940;6.782;2022-12-31T18:43:16;19.00;;;18.20;;
11431;SDS011;5772;50.940;6.782;2022-12-31T18:45:43;18.53;;;17.73;;
11431;SDS011;5772;50.940;6.782;2022-12-31T18:48:08;18.17;;;17.27;;
11431;SDS011;5772;50.940;6.782;2022-12-31T18:50:34;19.03;;;18.23;;
11431;SDS011;5772;50.940;6.782;2022-12-31T18:52:59;17.67;;;16.87;;
11431;SDS011;5772;50.940;6.782;2022-12-31T18:55:25;19.20;;;18.10;;
11431;SDS011;5772;50.940;6.782;2022-12-31T18:57:55;18.53;;;17.63;;
11431;SDS011;5772;50.940;6.782;2022-12-31T19:00:20;17.57;;;16.63;;
11431;SDS011;5772;50.940;6.782;2022-12-31T19:02:46;19.43;;;18.47;;
11431;SDS011;5772;50.940;6.782;2022-12-31T19:05:18;16.90;;;16.20;;
11431;SDS011;5772;50.940;6.782;2022-12-31T19:07:45;18.47;;;17.67;;
11431;SDS011;5772;50.940;6.782;2022-12-31T19:10:11;18.07;;;17.27;;
11431;SDS011;5772;50.940;6.782;2022-12-31T19:12:37;17.73;;;16.93;;
11431;SDS011;5772;50.940;6.782;2022-12-31T19:15:05;18.20;;;17.50;;
11431;SDS011;5772;50.940;6.782;2022-12-31T19:17:35;20.73;;;19.77;;
11431;SDS011;5772;50.940;6.782;2022-12-31T19:20:00;19.93;;;18.83;;
11431;SDS011;5772;50.940;6.782;2022-12-31T19:22:25;20.07;;;19.03;;
11431;SDS011;5772;50.940;6.782;2022-12-31T19:24:51;22.67;;;21.57;;
11431;SDS011;5772;50.940;6.782;2022-12-31T19:27:16;22.80;;;20.93;;
11431;SDS011;5772;50.940;6.782;2022-12-31T19:29:41;25.47;;;24.23;;
11431;SDS011;5772;50.940;6.782;2022-12-31T19:32:08;21.37;;;20.37;;
11431;SDS011;5772;50.940;6.782;2022-12-31T19:34:33;20.60;;;19.77;;
11431;SDS011;5772;50.940;6.782;2022-12-31T19:36:59;20.27;;;19.47;;
11431;SDS011;5772;50.940;6.782;2022-12-31T19:39:24;20.77;;;19.67;;
11431;SDS011;5772;50.940;6.782;2022-12-31T19:41:50;19.83;;;18.87;;
11431;SDS011;5772;50.940;6.782;2022-12-31T19:44:15;20.70;;;19.70;;
11431;SDS011;5772;50.940;6.782;2022-12-31T19:46:41;19.40;;;18.53;;
11431;SDS011;5772;50.940;6.782;2022-12-31T19:49:10;20.27;;;19.33;;
11431;SDS011;5772;50.940;6.782;2022-12-31T19:51:35;20.57;;;19.47;;
11431;SDS011;5772;50.940;6.782;2022-12-31T19:54:01;19.70;;;18.33;;
11431;SDS011;5772;50.940;6.782;2022-12-31T19:56:26;20.30;;;19.13;;
11431;SDS011;5772;50.940;6.782;2022-12-31T19:58:51;19.53;;;18.73;;
11431;SDS011;5772;50.940;6.782;2022-12-31T20:01:18;21.53;;;20.43;;
11431;SDS011;5772;50.940;6.782;2022-12-31T20:03:44;19.60;;;18.70;;
11431;SDS011;5772;50.940;6.782;2022-12-31T20:06:11;21.07;;;20.17;;
11431;SDS011;5772;50.940;6.782;2022-12-31T20:08:37;20.23;;;19.17;;
11431;SDS011;5772;50.940;6.782;2022-12-31T20:11:06;19.50;;;18.57;;
11431;SDS011;5772;50.940;6.782;2022-12-31T20:13:33;21.37;;;20.37;;
11431;SDS011;5772;50.940;6.782;2022-12-31T20:15:58;19.27;;;18.40;;
11431;SDS011;5772;50.940;6.782;2022-12-31T20:18:23;21.87;;;20.40;;
11431;SDS011;5772;50.940;6.782;2022-12-31T20:20:49;21.13;;;19.77;;
11431;SDS011;5772;50.940;6.782;2022-12-31T20:23:16;21.60;;;20.43;;
11431;SDS011;5772;50.940;6.782;2022-12-31T20:25:41;19.77;;;18.87;;
11431;SDS011;5772;50.940;6.782;2022-12-31T20:28:06;19.87;;;18.87;;
11431;SDS011;5772;50.940;6.782;2022-12-31T20:30:32;20.23;;;19.07;;
11431;SDS011;5772;50.940;6.782;2022-12-31T20:32:57;19.90;;;19.00;;
11431;SDS011;5772;50.940;6.782;2022-12-31T20:35:23;23.40;;;21.73;;
11431;SDS011;5772;50.940;6.782;2022-12-31T20:37:48;20.47;;;19.37;;
11431;SDS011;5772;50.940;6.782;2022-12-31T20:40:15;19.57;;;18.57;;
11431;SDS011;5772;50.940;6.782;2022-12-31T20:42:40;20.10;;;19.10;;
11431;SDS011;5772;50.940;6.782;2022-12-31T20:45:06;20.50;;;19.37;;
11431;SDS011;5772;50.940;6.782;2022-12-31T20:47:33;18.33;;;17.53;;
11431;SDS011;5772;50.940;6.782;2022-12-31T20:49:58;20.67;;;19.77;;
11431;SDS011;5772;50.940;6.782;2022-12-31T20:52:23;18.87;;;18.07;;
11431;SDS011;5772;50.940;6.782;2022-12-31T20:54:49;18.93;;;17.90;;
11431;SDS011;5772;50.940;6.782;2022-12-31T20:57:15;19.90;;;18.53;;
11431;SDS011;5772;50.940;6.782;2022-12-31T20:59:41;17.53;;;16.83;;
11431;SDS011;5772;50.940;6.782;2022-12-31T21:02:07;19.90;;;18.80;;
11431;SDS011;5772;50.940;6.782;2022-12-31T21:04:37;19.23;;;18.07;;
11431;SDS011;5772;50.940;6.782;2022-12-31T21:07:02;19.47;;;18.27;;
11431;SDS011;5772;50.940;6.782;2022-12-31T21:09:27;18.77;;;17.97;;
11431;SDS011;5772;50.940;6.782;2022-12-31T21:11:53;17.90;;;16.70;;
11431;SDS011;5772;50.940;6.782;2022-12-31T21:14:20;18.73;;;17.93;;
11431;SDS011;5772;50.940;6.782;2022-12-31T21:16:45;17.80;;;17.10;;
11431;SDS011;5772;50.940;6.782;2022-12-31T21:19:10;18.67;;;17.80;;
11431;SDS011;5772;50.940;6.782;2022-12-31T21:21:36;23.57;;;21.87;;
11431;SDS011;5772;50.940;6.782;2022-12-31T21:24:01;19.87;;;18.83;;
11431;SDS011;5772;50.940;6.782;2022-12-31T21:26:27;18.40;;;17.40;;
11431;SDS011;5772;50.940;6.782;2022-12-31T21:28:52;18.17;;;17.27;;
11431;SDS011;5772;50.940;6.782;2022-12-31T21:31:19;18.70;;;17.90;;
11431;SDS011;5772;50.940;6.782;2022-12-31T21:33:45;17.53;;;16.53;;
11431;SDS011;5772;50.940;6.782;2022-12-31T21:36:11;16.70;;;16.00;;
11431;SDS011;5772;50.940;6.782;2022-12-31T21:38:37;17.70;;;16.90;;
11431;SDS011;5772;50.940;6.782;2022-12-31T21:41:02;16.83;;;15.97;;
11431;SDS011;5772;50.940;6.782;2022-12-31T21:43:28;17.93;;;16.93;;
11431;SDS011;5772;50.940;6.782;2022-12-31T21:45:58;22.17;;;20.00;;
11431;SDS011;5772;50.940;6.782;2022-12-31T21:48:25;17.93;;;17.00;;
11431;SDS011;5772;50.940;6.782;2022-12-31T21:50:51;17.00;;;16.10;;
11431;SDS011;5772;50.940;6.782;2022-12-31T21:53:18;16.97;;;16.17;;
11431;SDS011;5772;50.940;6.782;2022-12-31T21:55:44;17.67;;;16.57;;
11431;SDS011;5772;50.940;6.782;2022-12-31T21:58:09;17.57;;;16.77;;
11431;SDS011;5772;50.940;6.782;2022-12-31T22:00:35;17.80;;;16.67;;
11431;SDS011;5772;50.940;6.782;2022-12-31T22:03:00;17.17;;;16.37;;
11431;SDS011;5772;50.940;6.782;2022-12-31T22:05:27;17.80;;;16.70;;
11431;SDS011;5772;50.940;6.782;2022-12-31T22:07:53;18.13;;;17.33;;
11431;SDS011;5772;50.940;6.782;2022-12-31T22:10:18;18.30;;;17.13;;
11431;SDS011;5772;50.940;6.782;2022-12-31T22:12:43;17.53;;;16.83;;
11431;SDS011;5772;50.940;6.782;2022-12-31T22:15:09;18.23;;;17.33;;
11431;SDS011;5772;50.940;6.782;2022-12-31T22:17:34;18.20;;;16.97;;
11431;SDS011;5772;50.940;6.782;2022-12-31T22:20:00;17.73;;;16.93;;
11431;SDS011;5772;50.940;6.782;2022-12-31T22:22:26;18.83;;;17.73;;
11431;SDS011;5772;50.940;6.782;2022-12-31T22:24:52;17.17;;;15.93;;
11431;SDS011;5772;50.940;6.782;2022-12-31T22:27:17;18.50;;;17.43;;
11431;SDS011;5772;50.940;6.782;2022-12-31T22:29:42;17.97;;;17.17;;
11431;SDS011;5772;50.940;6.782;2022-12-31T22:32:08;16.07;;;15.47;;
11431;SDS011;5772;50.940;6.782;2022-12-31T22:34:33;17.30;;;16.60;;
11431;SDS011;5772;50.940;6.782;2022-12-31T22:36:59;16.73;;;16.03;;
11431;SDS011;5772;50.940;6.782;2022-12-31T22:39:25;18.67;;;17.67;;
11431;SDS011;5772;50.940;6.782;2022-12-31T22:41:51;17.30;;;16.60;;
11431;SDS011;5772;50.940;6.782;2022-12-31T22:44:16;19.07;;;18.00;;
11431;SDS011;5772;50.940;6.782;2022-12-31T22:46:41;17.03;;;16.33;;
11431;SDS011;5772;50.940;6.782;2022-12-31T22:49:08;18.17;;;17.37;;
11431;SDS011;5772;50.940;6.782;2022-12-31T22:51:34;18.03;;;17.23;;
11431;SDS011;5772;50.940;6.782;2022-12-31T22:53:59;33.20;;;31.30;;
11431;SDS011;5772;50.940;6.782;2022-12-31T22:56:26;19.03;;;18.00;;
11431;SDS011;5772;50.940;6.782;2022-12-31T22:58:51;17.90;;;17.00;;
11431;SDS011;5772;50.940;6.782;2022-12-31T23:01:17;26.90;;;25.30;;
11431;SDS011;5772;50.940;6.782;2022-12-31T23:03:43;70.77;;;63.47;;
11431;SDS011;5772;50.940;6.782;2022-12-31T23:06:09;98.17;;;87.73;;
11431;SDS011;5772;50.940;6.782;2022-12-31T23:08:35;53.67;;;49.60;;
